Mount Hood, OR

4:01 PM PDT on September 21, 2014 (GMT -0700)
Parkdale West | Change Station
CLOSE
Current Station
Personal Weather Station
Location: Mt Hood Parkdale, OR
Elevation: 1473 ft
Nearby Weather Stations

Elev 1473 ft 45.54 °N, 121.62 °W | Updated 19 seconds ago

Clear
Clear
86.2 °F
Feels Like 84 °F
N
2.0
Wind Variable Wind from NNW
Gusts 0.0 mph

Today
High -- | Low -- °F
--% Chance of Precip.
Yesterday
High -- | Low -- °F
Precip. -- in
6:52 AM 7:05 PM
Waning Crescent, 5% visible
Pressure 29.78 in
Visibility 10.0 miles
Clouds Clear
Heat Index 84 °F
Dew Point 52 °F
Humidity 31%
Rainfall 0.00 in
Snow Depth 0 in , 0 in , 0 in
UV 3 out of 12
Pollen 2.70 out of 12
Air Quality Not available.
Flu Activity Not available.
METAR KDLS 212253Z AUTO 03003KT 10SM CLR 33/07 A2979 RMK AO2 SLP085 T03280067

More Conditions Fewer Conditions

Pressure 29.78 in
Visibility 10.0 miles
Clouds Clear
Heat Index 84 °F
Dew Point 52 °F
Humidity 31%
Rainfall 0.00 in
Snow Depth 0 in , 0 in , 0 in
UV 3 out of 12
Pollen 2.70 out of 12
Air Quality Not available.
Flu Activity Not available.
METAR KDLS 212253Z AUTO 03003KT 10SM CLR 33/07 A2979 RMK AO2 SLP085 T03280067

More Conditions Fewer Conditions

10-Day Weather Forecast

Almanac

Astronomy

Sep. 21, 2014 Rise Set
Actual Time 6:52 AM PDT 7:05 PM PDT
Civil Twilight 6:22 AM PDT 7:35 PM PDT
Nautical Twilight 5:47 AM PDT 8:09 PM PDT
Astronomical Twilight 5:12 AM PDT 8:45 PM PDT
Moon 4:25 AM PDT 5:48 PM PDT
Length of Visible Light 13h 12m
Length of Day
12h 13m
Tomorrow will be 3m 10s shorter.
Waning Crescent, 5% of the Moon is Illuminated
Today
Waning Crescent
Sep 24
New
Oct 1
First Quarter
Oct 8
Full
Oct 15
Last Quarter

Today's Extremes

State Highs State Lows

Community

WunderPhotos

Upload Photos

1,755,290 photos uploaded!

WunderBlogs® & News

Nearby

Snow Depth

Station Depth Elevation
North Fork 0 in 3120 ft
Daly Lake 0 in 3600 ft
Mt. Howard 0 in 7910 ft
Strawberry 0 in 5760 ft
Schneider Meadows 0 in 5400 ft

Earthquake Activity

City Distance Mag. Time & Date
No recent earthquake activity has been reported nearby.
Minimum magnitude displayed is 2.5.

Coastal Water Temperatures

Place Temperature
No Stations Reporting

Nearby Weather Stations